Language selection

My Weather Profile Weather Topics  | 

Atlantic - Labrador: Past 24 Hour Conditions

 

Cartwright Airport

10:00 PM ADT 09 May 2021
Disclaimer

This table is a summary of hourly weather conditions for the past 24 hours.
Please note that these observations might not always be representative of weather conditions over their associated marine area.

Date / Time
(ADT)
Wind(knots) Conditions Visibility(km) Pressure(kPa) Air tempC) Relative humidity(%) Dew pointC) Wind Chill
09 May 2021
22:00 NNE 17 gust 25 Light Snow 3 100.6 0 98 0 *
21:00 NNE 17 gust 25 Light Rain 4 100.7 0 98 0 *
20:00 NNE 15 gust 21 Light Snow 2 100.8 0 98 0 *
19:00 NNE 17 gust 24 Light Rain 11 100.8 1 96 0 *
18:00 NE 17 gust 23 Light Snow 11 100.9 1 96 0 *
17:00 NE 15 gust 22 Light Snow 6 100.9 1 96 0 *
16:00 NE 12 gust 21 Light Snow 4 101.0 1 96 0 *
15:00 NE 14 gust 23 Cloudy 16 101.1 2 83 -1 *
14:00 ENE 10 gust 20 Precipitation 16 101.2 2 82 -1 *
13:00 ENE 13 gust 20 Cloudy 16 101.3 2 85 -1 *
12:00 NE 12 gust 18 Light Rain 16 101.4 1 94 0 *
11:00 NE 13 gust 20 Light Rain 4 101.5 1 94 0 *
10:00 NE 11 gust 17 Light Rain 16 101.6 1 92 0 *
9:00 NE 9 gust 16 Cloudy 16 101.7 1 91 0 *
8:00 NE 7 Cloudy 16 101.7 1 93 0 *
7:00 NE 8 Cloudy 16 101.8 0 95 -1 *
6:00 NE 6 Light Snow 4 101.9 0 95 -1 -4
5:00 E 7 Light Rain 11 101.9 0 89 -2 -4
4:00 ENE 9 gust 15 Light Rain 16 102.0 0 84 -2 *
3:00 ENE 6 Cloudy 16 102.1 0 83 -2 *
2:00 ENE 8 Cloudy 16 102.1 0 82 -2 *
1:00 E 6 Cloudy 16 102.3 0 84 -2 *
0:00 ENE 5 Cloudy 16 102.3 0 83 -2 *
08 May 2021
23:00 E 7 Light Rain 16 102.4 0 86 -2 *
22:00 ENE 7 Cloudy 16 102.4 1 86 -2 *

Zoom-in to make a selection

Map of Atlantic - Labrador marine weather areas Kangiqsualujjuaq Airport Cape Kakkiviak Cape Kiglapait Cartwright Airport CFB Goose Bay Hopedale Mary's Harbour Nain Airport Makkovik Airport Saglek Tukialik Bay
Legend:
buoy Buoy
land station Land Station

Atlantic - Labrador Area

Another Region

What we are doing

Date modified: